sensor_id;sensor_type;location;lat;lon;timestamp;noise_LAeq;noise_LA_min;noise_LA_max;noise_LA01;noise_LA95
75037;Laerm;64247;51.540;5.854;2023-02-15T00:01:38;47.54;45.70;49.12;;
75037;Laerm;64247;51.540;5.854;2023-02-15T00:03:39;50.49;45.75;63.39;;
75037;Laerm;64247;51.540;5.854;2023-02-15T00:05:40;47.68;45.76;49.41;;
75037;Laerm;64247;51.540;5.854;2023-02-15T00:07:41;47.79;45.98;49.29;;
75037;Laerm;64247;51.540;5.854;2023-02-15T00:09:41;48.31;46.14;54.55;;
75037;Laerm;64247;51.540;5.854;2023-02-15T00:11:42;48.88;46.64;54.49;;
75037;Laerm;64247;51.540;5.854;2023-02-15T00:13:45;48.34;46.71;50.28;;
75037;Laerm;64247;51.540;5.854;2023-02-15T00:15:46;48.28;46.54;49.89;;
75037;Laerm;64247;51.540;5.854;2023-02-15T00:17:47;48.93;46.38;62.26;;
75037;Laerm;64247;51.540;5.854;2023-02-15T00:19:47;51.08;46.86;62.92;;
75037;Laerm;64247;51.540;5.854;2023-02-15T00:21:48;52.51;46.90;64.20;;
75037;Laerm;64247;51.540;5.854;2023-02-15T00:23:49;53.00;46.89;62.32;;
75037;Laerm;64247;51.540;5.854;2023-02-15T00:25:50;50.29;46.69;60.73;;
75037;Laerm;64247;51.540;5.854;2023-02-15T00:27:51;48.32;46.56;50.61;;
75037;Laerm;64247;51.540;5.854;2023-02-15T00:29:52;48.31;46.45;49.77;;
75037;Laerm;64247;51.540;5.854;2023-02-15T00:31:53;50.51;47.33;54.76;;
75037;Laerm;64247;51.540;5.854;2023-02-15T00:33:53;50.45;48.90;52.01;;
75037;Laerm;64247;51.540;5.854;2023-02-15T00:35:58;51.36;48.44;56.12;;
75037;Laerm;64247;51.540;5.854;2023-02-15T00:37:59;50.37;49.16;52.02;;
75037;Laerm;64247;51.540;5.854;2023-02-15T00:40:01;52.58;48.98;62.70;;
75037;Laerm;64247;51.540;5.854;2023-02-15T00:42:02;50.18;48.98;51.52;;
75037;Laerm;64247;51.540;5.854;2023-02-15T00:44:03;50.22;48.85;51.69;;
75037;Laerm;64247;51.540;5.854;2023-02-15T00:46:05;51.06;49.16;55.32;;
75037;Laerm;64247;51.540;5.854;2023-02-15T00:48:06;50.15;48.85;51.49;;
75037;Laerm;64247;51.540;5.854;2023-02-15T00:50:07;50.12;48.57;52.06;;
75037;Laerm;64247;51.540;5.854;2023-02-15T00:52:08;49.84;48.33;54.53;;
75037;Laerm;64247;51.540;5.854;2023-02-15T00:54:10;49.75;48.07;51.07;;
75037;Laerm;64247;51.540;5.854;2023-02-15T00:56:11;50.73;48.35;57.76;;
75037;Laerm;64247;51.540;5.854;2023-02-15T00:58:13;49.98;48.61;51.64;;
75037;Laerm;64247;51.540;5.854;2023-02-15T01:00:14;49.99;48.63;51.68;;
75037;Laerm;64247;51.540;5.854;2023-02-15T01:02:15;50.60;49.35;52.01;;
75037;Laerm;64247;51.540;5.854;2023-02-15T01:04:16;51.79;49.46;62.14;;
75037;Laerm;64247;51.540;5.854;2023-02-15T01:06:18;51.19;49.47;58.55;;
75037;Laerm;64247;51.540;5.854;2023-02-15T01:08:19;50.56;49.37;51.66;;
75037;Laerm;64247;51.540;5.854;2023-02-15T01:10:19;50.68;49.27;51.89;;
75037;Laerm;64247;51.540;5.854;2023-02-15T01:12:20;50.79;49.51;52.00;;
75037;Laerm;64247;51.540;5.854;2023-02-15T01:14:21;50.77;49.53;53.59;;
75037;Laerm;64247;51.540;5.854;2023-02-15T01:16:25;50.70;49.33;51.78;;
75037;Laerm;64247;51.540;5.854;2023-02-15T01:18:26;50.68;49.29;52.05;;
75037;Laerm;64247;51.540;5.854;2023-02-15T01:20:28;50.73;49.53;51.88;;
75037;Laerm;64247;51.540;5.854;2023-02-15T01:22:29;50.84;49.30;52.22;;
75037;Laerm;64247;51.540;5.854;2023-02-15T01:24:30;52.26;49.59;61.39;;
75037;Laerm;64247;51.540;5.854;2023-02-15T01:26:31;50.66;49.07;53.10;;
75037;Laerm;64247;51.540;5.854;2023-02-15T01:28:33;50.63;49.30;65.78;;
75037;Laerm;64247;51.540;5.854;2023-02-15T01:30:35;50.52;49.14;51.83;;
75037;Laerm;64247;51.540;5.854;2023-02-15T01:32:36;50.54;49.14;51.87;;
75037;Laerm;64247;51.540;5.854;2023-02-15T01:34:37;50.56;49.18;53.08;;
75037;Laerm;64247;51.540;5.854;2023-02-15T01:36:37;50.70;49.24;54.77;;
75037;Laerm;64247;51.540;5.854;2023-02-15T01:38:39;50.71;49.32;52.70;;
75037;Laerm;64247;51.540;5.854;2023-02-15T01:40:43;50.72;49.52;52.10;;
75037;Laerm;64247;51.540;5.854;2023-02-15T01:42:54;50.66;49.30;52.23;;
75037;Laerm;64247;51.540;5.854;2023-02-15T01:50:39;50.68;48.95;53.45;;
75037;Laerm;64247;51.540;5.854;2023-02-15T01:52:58;52.20;49.05;61.25;;
75037;Laerm;64247;51.540;5.854;2023-02-15T01:55:03;50.28;48.78;53.16;;
75037;Laerm;64247;51.540;5.854;2023-02-15T01:57:25;50.46;48.94;53.00;;
75037;Laerm;64247;51.540;5.854;2023-02-15T01:59:28;50.41;49.01;60.05;;
75037;Laerm;64247;51.540;5.854;2023-02-15T02:01:30;50.51;49.23;51.64;;
75037;Laerm;64247;51.540;5.854;2023-02-15T02:04:04;50.46;49.27;51.66;;
75037;Laerm;64247;51.540;5.854;2023-02-15T02:06:10;50.50;49.18;51.84;;
75037;Laerm;64247;51.540;5.854;2023-02-15T02:08:14;50.51;49.05;51.91;;
75037;Laerm;64247;51.540;5.854;2023-02-15T02:10:20;50.69;49.35;52.19;;
75037;Laerm;64247;51.540;5.854;2023-02-15T02:12:23;50.69;49.46;52.59;;
75037;Laerm;64247;51.540;5.854;2023-02-15T02:14:25;51.34;49.49;58.10;;
75037;Laerm;64247;51.540;5.854;2023-02-15T02:20:43;50.83;49.45;52.40;;
75037;Laerm;64247;51.540;5.854;2023-02-15T02:35:01;50.89;49.47;53.88;;
75037;Laerm;64247;51.540;5.854;2023-02-15T02:42:01;53.29;49.60;61.95;;
75037;Laerm;64247;51.540;5.854;2023-02-15T02:44:23;50.85;49.56;54.17;;
75037;Laerm;64247;51.540;5.854;2023-02-15T02:49:37;52.02;49.74;57.67;;
75037;Laerm;64247;51.540;5.854;2023-02-15T02:51:39;50.63;49.31;52.39;;
75037;Laerm;64247;51.540;5.854;2023-02-15T02:53:40;50.38;49.27;52.55;;
75037;Laerm;64247;51.540;5.854;2023-02-15T02:55:48;51.60;49.04;60.58;;
75037;Laerm;64247;51.540;5.854;2023-02-15T02:58:01;50.52;49.26;52.12;;
75037;Laerm;64247;51.540;5.854;2023-02-15T03:00:05;50.53;49.29;54.40;;
75037;Laerm;64247;51.540;5.854;2023-02-15T03:02:17;50.53;49.32;52.64;;
75037;Laerm;64247;51.540;5.854;2023-02-15T03:04:31;50.57;49.21;54.81;;
75037;Laerm;64247;51.540;5.854;2023-02-15T03:06:59;51.77;49.35;57.94;;
75037;Laerm;64247;51.540;5.854;2023-02-15T03:09:15;52.54;49.08;62.13;;
75037;Laerm;64247;51.540;5.854;2023-02-15T03:11:18;50.75;49.56;53.34;;
75037;Laerm;64247;51.540;5.854;2023-02-15T03:13:19;53.42;49.43;61.56;;
75037;Laerm;64247;51.540;5.854;2023-02-15T03:15:30;50.72;49.52;52.90;;
75037;Laerm;64247;51.540;5.854;2023-02-15T03:18:00;50.93;49.31;54.55;;
75037;Laerm;64247;51.540;5.854;2023-02-15T03:20:11;51.39;49.47;58.50;;
75037;Laerm;64247;51.540;5.854;2023-02-15T03:22:21;53.15;49.43;63.06;;
75037;Laerm;64247;51.540;5.854;2023-02-15T03:24:36;51.24;49.60;56.86;;
75037;Laerm;64247;51.540;5.854;2023-02-15T03:26:42;50.74;49.25;52.67;;
75037;Laerm;64247;51.540;5.854;2023-02-15T03:28:50;50.70;49.47;52.33;;
75037;Laerm;64247;51.540;5.854;2023-02-15T03:30:55;51.61;49.52;58.32;;
75037;Laerm;64247;51.540;5.854;2023-02-15T03:33:01;51.06;49.49;55.59;;
75037;Laerm;64247;51.540;5.854;2023-02-15T03:35:04;51.84;49.46;59.44;;
75037;Laerm;64247;51.540;5.854;2023-02-15T03:37:54;52.31;49.89;59.05;;
75037;Laerm;64247;51.540;5.854;2023-02-15T03:40:43;52.07;49.45;59.22;;
75037;Laerm;64247;51.540;5.854;2023-02-15T03:45:45;53.16;49.87;58.11;;
75037;Laerm;64247;51.540;5.854;2023-02-15T03:47:58;51.27;49.62;58.67;;
75037;Laerm;64247;51.540;5.854;2023-02-15T03:50:25;51.69;49.66;57.47;;
75037;Laerm;64247;51.540;5.854;2023-02-15T03:52:46;53.14;49.49;59.88;;
75037;Laerm;64247;51.540;5.854;2023-02-15T03:54:48;51.85;49.17;60.63;;
75037;Laerm;64247;51.540;5.854;2023-02-15T03:56:50;56.28;49.92;62.57;;
75037;Laerm;64247;51.540;5.854;2023-02-15T03:59:11;52.95;49.69;58.21;;
75037;Laerm;64247;51.540;5.854;2023-02-15T04:02:06;51.71;49.21;58.87;;
75037;Laerm;64247;51.540;5.854;2023-02-15T04:04:37;53.54;49.43;60.71;;
75037;Laerm;64247;51.540;5.854;2023-02-15T04:06:38;51.89;49.43;60.53;;
75037;Laerm;64247;51.540;5.854;2023-02-15T04:08:39;52.23;49.53;61.85;;
75037;Laerm;64247;51.540;5.854;2023-02-15T04:10:58;52.74;50.23;59.99;;
75037;Laerm;64247;51.540;5.854;2023-02-15T04:13:00;52.73;49.53;60.06;;
75037;Laerm;64247;51.540;5.854;2023-02-15T04:15:01;52.10;49.63;57.31;;
75037;Laerm;64247;51.540;5.854;2023-02-15T04:17:21;54.33;51.00;59.87;;
75037;Laerm;64247;51.540;5.854;2023-02-15T04:19:21;55.54;50.48;62.07;;
75037;Laerm;64247;51.540;5.854;2023-02-15T04:21:41;54.08;50.71;59.61;;
75037;Laerm;64247;51.540;5.854;2023-02-15T04:24:00;53.39;50.29;63.82;;
75037;Laerm;64247;51.540;5.854;2023-02-15T04:26:19;54.14;50.48;60.45;;
75037;Laerm;64247;51.540;5.854;2023-02-15T04:28:20;52.79;49.84;59.40;;
75037;Laerm;64247;51.540;5.854;2023-02-15T04:30:25;53.86;50.86;59.47;;
75037;Laerm;64247;51.540;5.854;2023-02-15T04:32:27;54.79;51.13;62.35;;
75037;Laerm;64247;51.540;5.854;2023-02-15T04:34:27;54.08;50.22;60.48;;
75037;Laerm;64247;51.540;5.854;2023-02-15T04:36:28;54.81;50.54;61.59;;
75037;Laerm;64247;51.540;5.854;2023-02-15T04:38:29;54.16;50.30;61.27;;
75037;Laerm;64247;51.540;5.854;2023-02-15T04:40:30;53.93;51.03;60.38;;
75037;Laerm;64247;51.540;5.854;2023-02-15T04:42:31;52.95;49.84;58.41;;
75037;Laerm;64247;51.540;5.854;2023-02-15T04:44:32;55.09;50.98;60.87;;
75037;Laerm;64247;51.540;5.854;2023-02-15T04:46:33;52.50;49.78;58.64;;
75037;Laerm;64247;51.540;5.854;2023-02-15T04:48:33;54.61;50.46;63.90;;
75037;Laerm;64247;51.540;5.854;2023-02-15T04:50:35;54.80;50.35;60.16;;
75037;Laerm;64247;51.540;5.854;2023-02-15T04:52:35;55.86;51.06;61.41;;
75037;Laerm;64247;51.540;5.854;2023-02-15T04:54:36;53.23;49.60;61.42;;
75037;Laerm;64247;51.540;5.854;2023-02-15T04:56:39;51.78;49.55;57.76;;
75037;Laerm;64247;51.540;5.854;2023-02-15T04:58:40;53.35;49.64;59.03;;
75037;Laerm;64247;51.540;5.854;2023-02-15T05:00:41;53.99;49.88;62.91;;
75037;Laerm;64247;51.540;5.854;2023-02-15T05:02:42;53.10;50.35;59.65;;
75037;Laerm;64247;51.540;5.854;2023-02-15T05:04:43;55.07;49.69;61.77;;
75037;Laerm;64247;51.540;5.854;2023-02-15T05:06:44;53.25;49.62;59.57;;
75037;Laerm;64247;51.540;5.854;2023-02-15T05:08:45;54.88;49.88;61.57;;
75037;Laerm;64247;51.540;5.854;2023-02-15T05:10:48;54.32;50.52;61.71;;
75037;Laerm;64247;51.540;5.854;2023-02-15T05:12:49;53.89;49.86;60.31;;
75037;Laerm;64247;51.540;5.854;2023-02-15T05:14:50;53.30;50.62;57.30;;
75037;Laerm;64247;51.540;5.854;2023-02-15T05:16:51;55.01;50.68;61.49;;
75037;Laerm;64247;51.540;5.854;2023-02-15T05:18:52;54.68;50.99;60.45;;
75037;Laerm;64247;51.540;5.854;2023-02-15T05:20:53;54.27;50.57;62.02;;
75037;Laerm;64247;51.540;5.854;2023-02-15T05:22:54;55.55;50.91;63.33;;
